Time;durP1;ratioP1;P1;durP2;ratioP2;P2;SDS_P1;SDS_P2;PMS_P1;PMS_P2;Temp;Humidity;BMP_temperature;BMP_pressure;BME280_temperature;BME280_humidity;BME280_pressure;Samples;Min_cycle;Max_cycle;Signal;HPM_P1;HPM_P2
2022/04/21 00:00:33;;;;;;;9.57;6.45;;;10.90;99.90;;;;;;5059440;28;38902;-74
2022/04/21 00:02:59;;;;;;;9.38;6.07;;;10.90;99.90;;;;;;5052931;28;37537;-74
2022/04/21 00:05:26;;;;;;;12.73;8.07;;;10.80;99.90;;;;;;5063214;28;38227;-74
2022/04/21 00:07:53;;;;;;;8.77;6.72;;;10.80;99.90;;;;;;5058245;28;39034;-74
2022/04/21 00:10:20;;;;;;;11.30;7.47;;;10.80;99.90;;;;;;5058741;28;39053;-74
2022/04/21 00:12:46;;;;;;;9.05;7.03;;;10.80;99.90;;;;;;5057966;28;38738;-74
2022/04/21 00:15:13;;;;;;;7.47;6.65;;;10.80;99.90;;;;;;5059936;28;36787;-74
2022/04/21 00:17:39;;;;;;;9.65;6.85;;;10.80;99.90;;;;;;5057816;27;37705;-74
2022/04/21 00:20:06;;;;;;;10.90;7.30;;;10.80;99.90;;;;;;5056295;28;40518;-74
2022/04/21 00:25:17;;;;;;;9.32;6.75;;;10.80;99.90;;;;;;5058219;28;38696;-74
2022/04/21 00:27:44;;;;;;;8.52;6.93;;;10.80;99.90;;;;;;5063384;28;35794;-74
2022/04/21 00:30:12;;;;;;;11.40;7.63;;;10.70;99.90;;;;;;5052173;28;39031;-75
2022/04/21 00:32:40;;;;;;;9.10;6.88;;;10.70;99.90;;;;;;5078808;27;37973;-74
2022/04/21 00:35:11;;;;;;;9.60;7.30;;;10.70;99.90;;;;;;5058748;28;38219;-74
2022/04/21 00:37:51;;;;;;;12.63;7.22;;;10.70;99.90;;;;;;5055979;28;37101;-74
2022/04/21 00:40:19;;;;;;;8.63;7.15;;;10.70;99.90;;;;;;5072959;28;40545;-74
2022/04/21 00:42:46;;;;;;;10.53;7.23;;;10.60;99.90;;;;;;5056944;28;38806;-74
2022/04/21 00:45:13;;;;;;;11.17;8.13;;;10.70;99.90;;;;;;5060806;28;38927;-74
2022/04/21 00:47:42;;;;;;;9.15;7.18;;;10.70;99.90;;;;;;5058150;28;37469;-74
2022/04/21 00:50:17;;;;;;;10.23;7.10;;;10.60;99.90;;;;;;5052649;28;37586;-74
2022/04/21 00:52:44;;;;;;;9.02;7.00;;;10.60;99.90;;;;;;5055236;28;38318;-74
2022/04/21 00:55:11;;;;;;;9.95;7.40;;;10.50;99.90;;;;;;5058120;28;40664;-74
2022/04/21 00:57:42;;;;;;;11.20;6.97;;;10.50;99.90;;;;;;5057448;28;38173;-74
2022/04/21 01:00:09;;;;;;;10.00;6.85;;;10.50;99.90;;;;;;5057148;28;38384;-74
2022/04/21 01:02:51;;;;;;;12.02;7.38;;;10.50;99.90;;;;;;5058010;28;38867;-74
2022/04/21 01:05:32;;;;;;;15.55;7.35;;;10.50;99.90;;;;;;5059359;28;38178;-74
2022/04/21 01:08:08;;;;;;;9.05;7.57;;;10.40;99.90;;;;;;5071835;28;35742;-74
2022/04/21 01:10:37;;;;;;;9.45;6.53;;;10.40;99.90;;;;;;5070634;28;46723;-74
2022/04/21 01:13:06;;;;;;;11.70;6.85;;;10.30;99.90;;;;;;5049240;28;39915;-74
2022/04/21 01:15:32;;;;;;;9.88;7.22;;;10.30;99.90;;;;;;5051613;28;38433;-74
2022/04/21 01:17:59;;;;;;;12.93;7.50;;;10.30;99.90;;;;;;5052894;28;35672;-73
2022/04/21 01:20:26;;;;;;;9.55;6.80;;;10.20;99.90;;;;;;5061025;28;39409;-74
2022/04/21 01:22:53;;;;;;;9.65;7.18;;;10.20;99.90;;;;;;5059209;27;38538;-74
2022/04/21 01:25:20;;;;;;;11.90;7.00;;;10.20;99.90;;;;;;5039087;28;36384;-74
2022/04/21 01:27:57;;;;;;;11.40;7.28;;;10.10;99.90;;;;;;5052204;27;37778;-74
2022/04/21 01:30:23;;;;;;;9.15;7.10;;;10.00;99.90;;;;;;5037110;28;39575;-74
2022/04/21 01:32:49;;;;;;;16.63;7.82;;;10.00;99.90;;;;;;5039164;28;40981;-74
2022/04/21 01:35:16;;;;;;;9.23;6.95;;;10.00;99.90;;;;;;5060179;28;40187;-74
2022/04/21 01:43:11;;;;;;;9.45;7.43;;;9.90;99.90;;;;;;5052631;28;39018;-74
2022/04/21 01:45:38;;;;;;;9.57;7.35;;;9.90;99.90;;;;;;5047686;28;38772;-74
2022/04/21 01:48:05;;;;;;;10.00;7.60;;;9.90;99.90;;;;;;5055678;28;37803;-74
2022/04/21 01:50:31;;;;;;;9.60;7.10;;;9.80;99.90;;;;;;5044022;28;39461;-74
2022/04/21 01:52:58;;;;;;;8.32;7.05;;;9.80;99.90;;;;;;5050733;28;39175;-73
2022/04/21 01:55:25;;;;;;;12.70;7.00;;;9.80;99.90;;;;;;5044166;28;37742;-75
2022/04/21 01:57:52;;;;;;;10.88;7.43;;;9.80;99.90;;;;;;5054407;28;37116;-74
2022/04/21 02:00:18;;;;;;;10.38;7.53;;;9.70;99.90;;;;;;5056288;28;39784;-75
2022/04/21 02:02:44;;;;;;;11.43;7.17;;;9.70;99.90;;;;;;5056628;28;38683;-75
2022/04/21 02:05:10;;;;;;;10.27;7.53;;;9.70;99.90;;;;;;5056417;28;37609;-74
2022/04/21 02:07:46;;;;;;;10.20;7.50;;;9.60;99.90;;;;;;5075143;28;37911;-75
2022/04/21 02:10:13;;;;;;;9.40;6.78;;;9.60;99.90;;;;;;5058850;28;40317;-74
2022/04/21 02:12:40;;;;;;;12.13;7.18;;;9.60;99.90;;;;;;5059839;28;38900;-74
2022/04/21 02:15:07;;;;;;;12.80;7.50;;;9.50;99.90;;;;;;5052745;28;39314;-74
2022/04/21 02:17:35;;;;;;;9.00;7.10;;;9.50;99.90;;;;;;5059099;27;41576;-74
2022/04/21 02:20:03;;;;;;;11.87;7.67;;;9.40;99.90;;;;;;5059599;28;38589;-74
2022/04/21 02:22:29;;;;;;;11.17;7.50;;;9.40;99.90;;;;;;5050656;28;47504;-74
2022/04/21 02:24:55;;;;;;;14.03;7.87;;;9.40;99.90;;;;;;5046660;28;38064;-74
2022/04/21 02:27:21;;;;;;;9.75;7.15;;;9.40;99.90;;;;;;5072060;28;37029;-74
2022/04/21 02:29:48;;;;;;;9.60;7.60;;;9.40;99.90;;;;;;5057203;28;38809;-74
2022/04/21 02:32:14;;;;;;;8.50;6.80;;;9.40;99.90;;;;;;5051782;28;39773;-74
2022/04/21 02:34:41;;;;;;;10.80;7.47;;;9.40;99.90;;;;;;5056116;28;38288;-74
2022/04/21 02:37:07;;;;;;;11.67;7.80;;;9.40;99.90;;;;;;5050750;28;38564;-74
2022/04/21 02:39:33;;;;;;;13.50;7.30;;;9.40;99.90;;;;;;5047391;28;38819;-75
2022/04/21 02:42:01;;;;;;;8.87;7.30;;;9.40;99.90;;;;;;5052748;28;38246;-74
2022/04/21 02:44:27;;;;;;;10.03;7.40;;;9.40;99.90;;;;;;5038608;28;47415;-74
2022/04/21 02:46:53;;;;;;;11.40;7.77;;;9.40;99.90;;;;;;5038553;28;38987;-75
2022/04/21 02:49:19;;;;;;;11.60;8.07;;;9.30;99.90;;;;;;5048430;28;38502;-74
2022/04/21 02:51:46;;;;;;;10.70;7.70;;;9.30;99.90;;;;;;5047293;28;39176;-74
2022/04/21 02:59:42;;;;;;;10.30;6.65;;;9.30;99.90;;;;;;5053016;28;49249;-74
2022/04/21 03:02:09;;;;;;;10.07;7.70;;;9.30;99.90;;;;;;5054825;28;39562;-74
2022/04/21 03:04:35;;;;;;;14.40;8.67;;;9.30;99.90;;;;;;5050313;28;36807;-74
2022/04/21 03:07:01;;;;;;;9.37;7.03;;;9.20;99.90;;;;;;5037141;28;39121;-74
2022/04/21 03:09:27;;;;;;;9.53;7.50;;;9.20;99.90;;;;;;5052548;28;39753;-74
2022/04/21 03:11:53;;;;;;;10.60;7.37;;;9.20;99.90;;;;;;5055157;28;39244;-74
2022/04/21 03:14:19;;;;;;;10.87;7.57;;;9.20;99.90;;;;;;5053572;28;39750;-74
2022/04/21 03:16:45;;;;;;;9.93;8.00;;;9.20;99.90;;;;;;5058514;28;39133;-74
2022/04/21 03:19:12;;;;;;;10.00;7.70;;;9.20;99.90;;;;;;5055125;28;39960;-74
2022/04/21 03:24:23;;;;;;;12.73;8.43;;;9.10;99.90;;;;;;5040605;28;38412;-74
2022/04/21 03:26:51;;;;;;;11.10;7.73;;;9.10;99.90;;;;;;5043145;28;37020;-74
2022/04/21 03:29:18;;;;;;;14.80;7.43;;;9.10;99.90;;;;;;5056463;28;39651;-74
2022/04/21 03:31:45;;;;;;;11.60;7.83;;;9.10;99.90;;;;;;5053285;28;38489;-74
2022/04/21 03:34:19;;;;;;;11.50;8.07;;;9.00;99.90;;;;;;5057550;28;37946;-74
2022/04/21 03:36:47;;;;;;;10.47;7.80;;;9.00;99.90;;;;;;5069581;28;37721;-74
2022/04/21 03:39:20;;;;;;;11.87;8.10;;;9.00;99.90;;;;;;5055466;28;39050;-74
2022/04/21 03:41:48;;;;;;;11.35;7.70;;;9.00;99.90;;;;;;5060470;28;39342;-74
2022/04/21 03:44:14;;;;;;;15.60;7.80;;;9.00;99.90;;;;;;5047319;28;38174;-75
2022/04/21 03:46:40;;;;;;;10.07;7.90;;;8.90;99.90;;;;;;5054791;28;37115;-74
2022/04/21 03:49:07;;;;;;;10.17;7.63;;;8.90;99.90;;;;;;5058388;28;42458;-76
2022/04/21 03:51:33;;;;;;;11.87;7.43;;;8.90;99.90;;;;;;5059540;28;39821;-75
2022/04/21 03:54:00;;;;;;;10.87;8.13;;;8.90;99.90;;;;;;5061399;28;38853;-76
2022/04/21 03:56:27;;;;;;;12.60;8.07;;;8.90;99.90;;;;;;5070279;28;39299;-76
2022/04/21 03:58:53;;;;;;;10.40;7.57;;;8.90;99.90;;;;;;5061629;28;39907;-76
2022/04/21 04:01:19;;;;;;;9.40;7.33;;;8.90;99.90;;;;;;5042589;28;39537;-77
2022/04/21 04:03:47;;;;;;;9.43;7.13;;;8.80;99.90;;;;;;5072980;28;39645;-75
2022/04/21 04:11:42;;;;;;;9.83;8.23;;;8.80;99.90;;;;;;5062520;28;49307;-76
2022/04/21 04:14:08;;;;;;;11.03;8.00;;;8.80;99.90;;;;;;5070051;28;38048;-75
2022/04/21 04:16:36;;;;;;;10.40;7.87;;;8.70;99.90;;;;;;5061907;28;37113;-75
2022/04/21 04:19:05;;;;;;;11.83;7.77;;;8.70;99.90;;;;;;5052230;28;38858;-75
2022/04/21 04:21:32;;;;;;;16.17;9.23;;;8.60;99.90;;;;;;5051020;28;38395;-77
2022/04/21 04:23:58;;;;;;;13.03;7.83;;;8.60;99.90;;;;;;5042545;28;38891;-76
2022/04/21 04:26:24;;;;;;;11.77;8.37;;;8.60;99.90;;;;;;5051912;28;37465;-75
2022/04/21 04:28:50;;;;;;;11.60;8.20;;;8.50;99.90;;;;;;5040955;28;39280;-75
2022/04/21 04:31:16;;;;;;;13.90;7.67;;;8.50;99.90;;;;;;5032857;28;39476;-76
2022/04/21 04:33:42;;;;;;;12.30;8.37;;;8.50;99.90;;;;;;5046198;28;38271;-76
2022/04/21 04:36:10;;;;;;;11.13;8.30;;;8.40;99.90;;;;;;5053597;28;38957;-76
2022/04/21 04:38:40;;;;;;;10.37;7.60;;;8.40;99.90;;;;;;5053054;28;38663;-76
2022/04/21 04:43:51;;;;;;;12.60;8.80;;;8.40;99.90;;;;;;5040730;28;38759;-76
2022/04/21 04:46:35;;;;;;;12.90;8.57;;;8.40;99.90;;;;;;5043140;28;38107;-76
2022/04/21 04:49:07;;;;;;;11.33;7.77;;;8.40;99.90;;;;;;5040312;28;40849;-76
2022/04/21 04:51:35;;;;;;;11.82;9.10;;;8.40;99.90;;;;;;5043234;28;47553;-76
2022/04/21 04:54:05;;;;;;;10.70;8.80;;;8.40;99.90;;;;;;5054747;28;37073;-76
2022/04/21 04:56:32;;;;;;;11.23;8.37;;;8.40;99.90;;;;;;5054936;28;47349;-75
2022/04/21 04:58:58;;;;;;;14.87;8.50;;;8.40;99.90;;;;;;5053744;28;36532;-76
2022/04/21 05:01:40;;;;;;;11.57;8.33;;;8.40;99.90;;;;;;5073065;28;39897;-77
2022/04/21 05:04:20;;;;;;;12.73;9.18;;;8.40;99.90;;;;;;5061225;28;38675;-77
2022/04/21 05:06:57;;;;;;;12.93;9.33;;;8.50;99.90;;;;;;5079225;28;38540;-76
2022/04/21 05:09:24;;;;;;;13.87;7.73;;;8.50;99.90;;;;;;5063448;28;39722;-76
2022/04/21 05:11:55;;;;;;;14.80;8.53;;;8.60;99.90;;;;;;5059280;28;39261;-77
2022/04/21 05:14:23;;;;;;;12.23;8.53;;;8.60;99.90;;;;;;5061281;27;39106;-76
2022/04/21 05:16:49;;;;;;;11.10;8.23;;;8.60;99.90;;;;;;5064210;28;37170;-76
2022/04/21 05:19:19;;;;;;;14.60;8.47;;;8.70;99.90;;;;;;5066275;27;39853;-76
2022/04/21 05:21:46;;;;;;;11.83;8.50;;;8.70;99.90;;;;;;5062137;28;38798;-76
2022/04/21 05:24:13;;;;;;;9.93;7.83;;;8.80;99.90;;;;;;5060825;28;37787;-76
2022/04/21 05:26:40;;;;;;;12.37;8.40;;;8.90;99.90;;;;;;5060621;28;37157;-77
2022/04/21 05:31:58;;;;;;;12.30;8.17;;;8.90;99.90;;;;;;5052772;28;39217;-77
2022/04/21 05:34:25;;;;;;;12.93;8.83;;;9.00;99.90;;;;;;5051002;28;38463;-76
2022/04/21 05:36:51;;;;;;;9.83;7.27;;;9.10;99.90;;;;;;5061622;28;39553;-76
2022/04/21 05:39:18;;;;;;;10.37;7.53;;;9.10;99.90;;;;;;5056948;28;39622;-74
2022/04/21 05:41:45;;;;;;;11.80;7.73;;;9.20;99.90;;;;;;5056971;28;37576;-77
2022/04/21 05:44:12;;;;;;;11.97;7.33;;;9.30;99.90;;;;;;5076428;28;39102;-76
2022/04/21 05:46:39;;;;;;;11.43;7.80;;;9.40;99.90;;;;;;5075650;28;38347;-76
2022/04/21 05:49:05;;;;;;;16.37;8.90;;;9.40;99.90;;;;;;5040938;28;40159;-75
2022/04/21 05:51:31;;;;;;;9.90;6.57;;;9.50;99.90;;;;;;5073763;28;40195;-75
2022/04/21 05:53:58;;;;;;;10.52;7.25;;;9.60;99.90;;;;;;5060459;28;38447;-77
2022/04/21 05:56:25;;;;;;;11.55;6.60;;;9.70;99.90;;;;;;5056142;28;36446;-75
2022/04/21 05:58:51;;;;;;;9.60;6.82;;;9.70;99.90;;;;;;5062060;28;39909;-75
2022/04/21 06:01:18;;;;;;;8.63;6.38;;;9.80;99.90;;;;;;5060828;28;39947;-74
2022/04/21 06:03:44;;;;;;;11.07;6.72;;;9.90;99.90;;;;;;5073494;28;39472;-75
2022/04/21 06:06:11;;;;;;;8.40;6.78;;;10.00;99.90;;;;;;5042120;28;37276;-75
2022/04/21 06:08:38;;;;;;;8.93;6.53;;;10.00;99.90;;;;;;5056756;28;40413;-76
2022/04/21 06:11:05;;;;;;;13.48;6.30;;;10.10;99.90;;;;;;5057582;28;39105;-75
2022/04/21 06:13:31;;;;;;;10.77;6.78;;;10.20;99.90;;;;;;5054199;28;38670;-76
2022/04/21 06:16:00;;;;;;;9.15;6.47;;;10.30;99.90;;;;;;5064213;28;37309;-76
2022/04/21 06:18:26;;;;;;;9.02;6.68;;;10.40;99.90;;;;;;5064297;27;38848;-75
2022/04/21 06:20:53;;;;;;;7.53;5.82;;;10.50;99.90;;;;;;5059514;28;38341;-75
2022/04/21 06:23:21;;;;;;;9.77;6.28;;;10.60;99.90;;;;;;5064299;27;39073;-75
2022/04/21 06:25:47;;;;;;;8.45;6.20;;;10.70;99.90;;;;;;5058904;28;38064;-75
2022/04/21 06:28:15;;;;;;;12.00;6.50;;;10.90;99.90;;;;;;5059808;28;39317;-75
2022/04/21 06:30:42;;;;;;;8.85;5.75;;;11.00;99.90;;;;;;5076683;28;38289;-75
2022/04/21 06:33:08;;;;;;;12.68;7.05;;;11.10;99.90;;;;;;5058872;28;37066;-75
2022/04/21 06:35:34;;;;;;;8.50;6.10;;;11.20;99.90;;;;;;5065971;28;36919;-75
2022/04/21 06:38:00;;;;;;;7.07;5.47;;;11.30;99.90;;;;;;5061659;28;40504;-77
2022/04/21 06:40:26;;;;;;;10.23;6.18;;;11.30;99.90;;;;;;5059343;28;39756;-75
2022/04/21 06:42:52;;;;;;;7.82;5.55;;;11.40;99.90;;;;;;5054884;28;38634;-75
2022/04/21 06:48:03;;;;;;;6.90;5.30;;;11.40;99.90;;;;;;5045049;28;38884;-75
2022/04/21 06:50:38;;;;;;;7.97;5.80;;;11.50;99.90;;;;;;5074377;28;37739;-75
2022/04/21 06:53:10;;;;;;;9.10;5.13;;;11.50;99.90;;;;;;5052609;28;38486;-75
2022/04/21 06:55:36;;;;;;;8.80;5.93;;;11.50;99.90;;;;;;5033253;28;38553;-75
2022/04/21 06:58:02;;;;;;;11.65;5.97;;;11.60;99.90;;;;;;5055420;28;36951;-75
2022/04/21 07:00:29;;;;;;;11.70;6.10;;;11.60;99.90;;;;;;5040206;28;37824;-76
2022/04/21 07:02:57;;;;;;;11.20;6.00;;;11.70;99.90;;;;;;5036621;28;38049;-76
2022/04/21 07:05:25;;;;;;;8.50;5.63;;;11.70;99.90;;;;;;5049315;28;36884;-76
2022/04/21 07:07:52;;;;;;;6.72;5.00;;;11.70;99.90;;;;;;5057654;28;39603;-76
2022/04/21 07:10:19;;;;;;;11.23;5.63;;;11.90;99.90;;;;;;5044533;27;38099;-76
2022/04/21 07:12:46;;;;;;;14.40;5.05;;;12.00;99.90;;;;;;5039674;28;39652;-76
2022/04/21 07:15:14;;;;;;;9.70;4.85;;;12.20;99.90;;;;;;5036031;28;37936;-76
2022/04/21 07:17:40;;;;;;;8.05;5.32;;;12.40;99.90;;;;;;5039918;28;38618;-78
2022/04/21 07:20:09;;;;;;;6.15;4.65;;;12.60;99.90;;;;;;5057591;28;38513;-76
2022/04/21 07:22:35;;;;;;;8.32;5.07;;;12.80;99.90;;;;;;5034919;28;38410;-78
2022/04/21 07:25:04;;;;;;;5.32;4.40;;;12.90;99.90;;;;;;5068295;28;37098;-77
2022/04/21 07:27:31;;;;;;;6.95;4.55;;;13.10;99.90;;;;;;5058489;28;40234;-79
2022/04/21 07:29:58;;;;;;;8.27;5.13;;;13.30;99.90;;;;;;5056083;28;38883;-78
2022/04/21 07:32:24;;;;;;;7.57;5.18;;;13.60;99.90;;;;;;5056955;27;38795;-78
2022/04/21 07:34:50;;;;;;;6.00;4.47;;;13.60;99.90;;;;;;5053966;28;37378;-78
2022/04/21 07:37:16;;;;;;;9.68;4.93;;;13.80;99.90;;;;;;5060565;28;38581;-78
2022/04/21 07:39:46;;;;;;;5.10;4.20;;;13.80;99.90;;;;;;5057739;28;39981;-78
2022/04/21 07:42:13;;;;;;;6.40;4.70;;;13.90;99.90;;;;;;5052797;28;39022;-76
2022/04/21 07:44:39;;;;;;;6.38;4.82;;;14.00;99.90;;;;;;5044523;28;37888;-78
2022/04/21 07:47:07;;;;;;;6.45;5.03;;;14.30;99.90;;;;;;5041094;28;39660;-76
2022/04/21 07:49:48;;;;;;;6.70;4.75;;;14.40;99.90;;;;;;5044224;28;37791;-77
2022/04/21 07:55:23;;;;;;;6.65;4.30;;;14.40;99.90;;;;;;5053794;28;38526;-77
2022/04/21 07:57:51;;;;;;;7.65;5.13;;;14.40;99.90;;;;;;5062589;28;40902;-78
2022/04/21 08:00:19;;;;;;;5.20;4.47;;;14.60;99.90;;;;;;5075546;28;38950;-77
2022/04/21 08:02:46;;;;;;;6.90;4.25;;;14.70;99.90;;;;;;5075987;28;37183;-74
2022/04/21 08:05:16;;;;;;;6.78;5.07;;;15.10;99.90;;;;;;5065505;28;39090;-77
2022/04/21 08:07:48;;;;;;;7.03;4.40;;;15.20;99.90;;;;;;5062161;28;39040;-77
2022/04/21 08:10:15;;;;;;;4.65;4.20;;;15.20;99.90;;;;;;5058625;28;37511;-77
2022/04/21 08:12:47;;;;;;;10.15;5.65;;;15.30;99.90;;;;;;5059760;28;38731;-75
2022/04/21 08:15:31;;;;;;;7.07;5.25;;;15.50;99.90;;;;;;5060560;28;36007;-75
2022/04/21 08:17:59;;;;;;;5.10;4.55;;;15.30;99.90;;;;;;5057221;28;38715;-76
2022/04/21 08:20:28;;;;;;;8.73;4.50;;;15.30;99.90;;;;;;5058819;28;38632;-76
2022/04/21 08:22:55;;;;;;;7.85;5.32;;;15.40;99.90;;;;;;5060862;28;38421;-75
2022/04/21 08:33:36;;;;;;;9.63;5.03;;;16.10;99.90;;;;;;5057309;28;49543;-76
2022/04/21 08:36:03;;;;;;;5.97;4.97;;;16.10;99.90;;;;;;5058107;28;37141;-77
2022/04/21 08:38:30;;;;;;;8.43;4.70;;;16.10;99.90;;;;;;5052273;28;40593;-78
2022/04/21 08:40:58;;;;;;;9.75;4.47;;;16.30;99.90;;;;;;5062065;28;38527;-78
2022/04/21 08:43:27;;;;;;;10.13;4.50;;;16.40;99.90;;;;;;5051387;28;39008;-78
2022/04/21 08:45:54;;;;;;;5.60;4.43;;;16.50;99.90;;;;;;5054269;28;40149;-78
2022/04/21 08:48:24;;;;;;;8.23;4.50;;;16.60;99.90;;;;;;5048434;28;39299;-79
2022/04/21 08:50:53;;;;;;;6.60;4.20;;;16.30;99.90;;;;;;5060319;28;39002;-79
2022/04/21 08:53:24;;;;;;;6.07;4.18;;;16.30;99.90;;;;;;5056004;28;38903;-78
2022/04/21 08:55:51;;;;;;;6.68;4.05;;;16.40;99.90;;;;;;5046019;28;37787;-77
2022/04/21 08:58:18;;;;;;;7.55;4.95;;;16.50;99.90;;;;;;5060627;28;37965;-77
2022/04/21 09:00:44;;;;;;;6.25;4.93;;;16.50;99.90;;;;;;5062165;28;38594;-76
2022/04/21 09:03:13;;;;;;;8.20;4.95;;;16.70;99.90;;;;;;5059983;28;38795;-76
2022/04/21 09:05:39;;;;;;;6.45;4.15;;;16.80;99.90;;;;;;5074416;28;36263;-76
2022/04/21 09:08:16;;;;;;;8.10;4.13;;;16.90;99.90;;;;;;5061484;27;39701;-76
2022/04/21 09:10:43;;;;;;;7.38;4.55;;;16.80;99.90;;;;;;5078947;28;37497;-76
2022/04/21 09:13:10;;;;;;;5.95;4.63;;;16.70;99.90;;;;;;5066862;28;38261;-77
2022/04/21 09:15:43;;;;;;;6.07;4.32;;;16.70;99.90;;;;;;5064697;28;37242;-77
2022/04/21 09:18:11;;;;;;;8.77;4.38;;;16.50;99.90;;;;;;5059074;28;40032;-77
2022/04/21 09:20:39;;;;;;;4.43;3.63;;;16.30;99.90;;;;;;5063419;28;38825;-76
2022/04/21 09:23:07;;;;;;;6.70;4.30;;;16.30;99.90;;;;;;5065401;28;38262;-77
2022/04/21 09:25:48;;;;;;;7.13;4.03;;;16.40;99.90;;;;;;5064789;28;37232;-76
2022/04/21 09:28:25;;;;;;;9.25;4.35;;;16.70;99.90;;;;;;5061990;28;39207;-77
2022/04/21 09:30:56;;;;;;;9.15;4.22;;;16.80;99.90;;;;;;5065947;28;38408;-76
2022/04/21 09:33:26;;;;;;;7.07;3.63;;;16.70;99.90;;;;;;5059763;28;37129;-76
2022/04/21 09:35:53;;;;;;;4.35;3.38;;;17.00;99.90;;;;;;5079430;28;36066;-81
2022/04/21 09:38:19;;;;;;;5.32;3.65;;;17.50;99.90;;;;;;5073412;28;39113;-80
2022/04/21 09:40:46;;;;;;;4.43;3.53;;;17.50;99.90;;;;;;5059046;28;37343;-76
2022/04/21 09:43:12;;;;;;;7.22;3.65;;;17.20;99.90;;;;;;5063886;28;37650;-76
2022/04/21 09:48:30;;;;;;;9.38;3.83;;;17.40;99.90;;;;;;5060579;27;39059;-76
2022/04/21 09:51:08;;;;;;;6.10;3.65;;;17.30;99.90;;;;;;5077686;28;38043;-77
2022/04/21 09:53:56;;;;;;;4.28;3.42;;;17.50;99.90;;;;;;5069207;28;48181;-77
2022/04/21 09:56:36;;;;;;;5.43;3.70;;;17.40;99.90;;;;;;5056849;28;36919;-76
2022/04/21 09:59:08;;;;;;;3.88;3.25;;;17.40;99.90;;;;;;5065139;28;37782;-75
2022/04/21 10:01:41;;;;;;;5.97;3.50;;;17.40;99.90;;;;;;5063264;28;48632;-76
2022/04/21 10:04:09;;;;;;;6.72;3.35;;;17.50;99.90;;;;;;5062134;28;37840;-76
2022/04/21 10:06:42;;;;;;;5.82;3.28;;;17.60;99.90;;;;;;5062787;28;39116;-77
2022/04/21 10:09:09;;;;;;;4.20;2.95;;;17.60;99.90;;;;;;5048617;28;39809;-76
2022/04/21 10:11:41;;;;;;;4.70;2.70;;;17.70;99.90;;;;;;5034822;28;40232;-76
2022/04/21 10:14:17;;;;;;;7.68;3.13;;;17.90;99.90;;;;;;5059946;28;38094;-77
2022/04/21 10:16:45;;;;;;;6.35;2.63;;;18.20;99.90;;;;;;5062374;28;37076;-77
2022/04/21 10:19:13;;;;;;;5.35;3.25;;;18.00;99.90;;;;;;5061546;28;40612;-77
2022/04/21 10:21:52;;;;;;;7.47;2.88;;;17.90;99.90;;;;;;5060081;28;39079;-77
2022/04/21 10:24:23;;;;;;;5.82;2.60;;;18.00;99.90;;;;;;5063550;28;38002;-77
2022/04/21 10:26:49;;;;;;;4.13;2.90;;;18.30;99.90;;;;;;5064405;28;38205;-76
2022/04/21 10:29:21;;;;;;;7.57;2.92;;;18.80;99.90;;;;;;5058634;28;39632;-78
2022/04/21 10:31:59;;;;;;;6.80;2.97;;;18.80;99.90;;;;;;5060300;28;38702;-77
2022/04/21 10:34:44;;;;;;;3.83;2.83;;;18.50;99.90;;;;;;5062097;28;40151;-77
2022/04/21 10:37:12;;;;;;;4.63;3.10;;;18.30;99.90;;;;;;5070072;28;38924;-77
2022/04/21 10:39:40;;;;;;;3.30;2.50;;;18.20;99.90;;;;;;5056839;28;39407;-77
2022/04/21 10:42:18;;;;;;;5.22;2.60;;;18.40;99.90;;;;;;5060313;28;37980;-77
2022/04/21 10:44:50;;;;;;;6.25;2.45;;;19.00;99.90;;;;;;5056901;28;38935;-79
2022/04/21 10:47:36;;;;;;;2.83;2.30;;;19.30;99.90;;;;;;5040337;28;37870;-79
2022/04/21 10:50:18;;;;;;;6.43;3.13;;;19.20;99.90;;;;;;5060189;28;38808;-78
2022/04/21 10:58:35;;;;;;;6.20;2.95;;;18.40;99.90;;;;;;5048583;28;38199;-77
2022/04/21 11:01:08;;;;;;;6.82;2.92;;;18.50;99.90;;;;;;5043452;28;38258;-76
2022/04/21 11:03:36;;;;;;;4.57;2.67;;;18.70;99.90;;;;;;5045661;28;39037;-77
2022/04/21 11:06:11;;;;;;;6.22;2.60;;;18.70;99.90;;;;;;5057918;28;39554;-76
2022/04/21 11:08:37;;;;;;;4.03;2.60;;;18.50;99.90;;;;;;5037037;28;37966;-77
2022/04/21 11:11:04;;;;;;;4.28;2.42;;;18.80;99.90;;;;;;5048802;28;38795;-77
2022/04/21 11:13:51;;;;;;;4.45;2.50;;;19.50;99.90;;;;;;5061455;27;38305;-77
2022/04/21 11:16:42;;;;;;;6.43;2.28;;;19.50;99.90;;;;;;5053737;28;38693;-77
2022/04/21 11:19:33;;;;;;;2.00;1.77;;;19.80;99.90;;;;;;5043262;28;36112;-77
2022/04/21 11:22:03;;;;;;;8.48;2.60;;;19.90;99.90;;;;;;5054578;28;37280;-77
2022/04/21 11:24:55;;;;;;;6.68;2.10;;;20.10;99.90;;;;;;5058646;28;46915;-82
2022/04/21 11:27:22;;;;;;;3.45;1.63;;;19.60;99.90;;;;;;5061714;28;39998;-77
2022/04/21 11:29:49;;;;;;;2.20;1.73;;;19.40;99.90;;;;;;5063730;28;37879;-77
2022/04/21 11:32:16;;;;;;;3.47;1.60;;;19.40;99.90;;;;;;5049112;28;39309;-77
2022/04/21 11:35:01;;;;;;;2.28;1.60;;;19.50;99.90;;;;;;5049188;28;38268;-77
2022/04/21 11:37:57;;;;;;;2.75;1.58;;;19.60;99.90;;;;;;5056471;28;40589;-79
2022/04/21 11:40:44;;;;;;;3.53;2.00;;;19.90;99.90;;;;;;5073712;28;38749;-79
2022/04/21 11:43:17;;;;;;;3.80;2.25;;;20.10;98.90;;;;;;5058647;28;39752;-79
2022/04/21 11:45:58;;;;;;;2.50;1.80;;;19.60;99.90;;;;;;5037036;28;38599;-79
2022/04/21 11:48:40;;;;;;;6.35;2.40;;;19.80;99.90;;;;;;5065807;28;37915;-78
2022/04/21 11:51:10;;;;;;;2.90;1.60;;;19.40;99.90;;;;;;5070445;28;38893;-79
2022/04/21 11:53:40;;;;;;;3.22;1.90;;;19.40;99.80;;;;;;5059717;28;38900;-78
2022/04/21 11:56:08;;;;;;;2.35;1.90;;;19.30;99.90;;;;;;5053813;28;38188;-78
2022/04/21 11:58:40;;;;;;;3.13;1.65;;;19.40;99.90;;;;;;5074084;28;38615;-78
2022/04/21 12:06:48;;;;;;;6.30;1.88;;;19.40;98.20;;;;;;5067167;28;50756;-79
2022/04/21 12:09:16;;;;;;;9.45;2.60;;;19.10;97.40;;;;;;5061329;28;38811;-80
2022/04/21 12:11:50;;;;;;;3.35;1.52;;;19.00;96.90;;;;;;5060408;28;38171;-78
2022/04/21 12:14:17;;;;;;;4.15;1.80;;;19.20;97.60;;;;;;5057708;28;38894;-78
2022/04/21 12:16:55;;;;;;;2.15;1.38;;;19.50;96.90;;;;;;5064295;28;38994;-79
2022/04/21 12:19:46;;;;;;;2.58;1.80;;;19.60;94.90;;;;;;5055750;28;38720;-78
2022/04/21 12:22:16;;;;;;;5.57;1.75;;;19.80;95.40;;;;;;5057255;28;38187;-77
2022/04/21 12:24:46;;;;;;;2.92;1.80;;;19.90;94.70;;;;;;5058413;28;37940;-79
2022/04/21 12:27:17;;;;;;;2.58;1.60;;;19.80;94.40;;;;;;5062321;28;38555;-79
2022/04/21 12:29:58;;;;;;;3.05;1.70;;;20.40;96.00;;;;;;5044096;28;37209;-79
2022/04/21 12:32:32;;;;;;;3.30;2.00;;;20.50;94.00;;;;;;5057132;28;36627;-77
2022/04/21 12:35:02;;;;;;;3.58;1.90;;;20.60;94.50;;;;;;5051598;28;38467;-78
2022/04/21 12:37:29;;;;;;;6.28;1.77;;;20.40;94.40;;;;;;5056316;28;47546;-78
2022/04/21 12:39:57;;;;;;;2.30;1.90;;;20.60;95.00;;;;;;5064343;28;39056;-77
2022/04/21 12:42:24;;;;;;;2.83;1.50;;;20.60;94.50;;;;;;5061383;28;36157;-78
2022/04/21 12:44:53;;;;;;;2.55;2.00;;;20.70;94.50;;;;;;5044804;28;37804;-76
2022/04/21 12:47:21;;;;;;;3.47;1.90;;;20.60;92.90;;;;;;5060069;28;38828;-79
2022/04/21 12:49:56;;;;;;;5.15;2.17;;;20.70;93.30;;;;;;5074144;28;38797;-78
2022/04/21 12:52:29;;;;;;;4.35;1.80;;;20.80;93.80;;;;;;5066930;28;37303;-78
2022/04/21 12:54:57;;;;;;;4.72;2.20;;;20.80;93.90;;;;;;5062441;28;38108;-77
2022/04/21 12:57:24;;;;;;;3.28;1.98;;;21.40;94.40;;;;;;5036145;28;38897;-75
2022/04/21 12:59:56;;;;;;;4.68;2.00;;;21.60;92.90;;;;;;5060424;28;37752;-76
2022/04/21 13:02:23;;;;;;;2.20;1.35;;;21.60;91.80;;;;;;5073385;28;37778;-77
2022/04/21 13:04:49;;;;;;;2.10;1.90;;;21.10;91.00;;;;;;5057580;28;39894;-76
2022/04/21 13:07:16;;;;;;;2.92;2.38;;;20.70;91.80;;;;;;5039947;28;38919;-77
2022/04/21 13:09:42;;;;;;;5.70;1.98;;;20.80;92.70;;;;;;5059287;28;38889;-78
2022/04/21 13:12:09;;;;;;;2.85;2.08;;;21.30;92.20;;;;;;5062833;28;37601;-77
2022/04/21 13:14:35;;;;;;;6.00;2.10;;;21.30;93.10;;;;;;5059551;28;40745;-77
2022/04/21 13:17:01;;;;;;;5.00;2.33;;;21.80;92.10;;;;;;5077591;28;40305;-76
2022/04/21 13:19:27;;;;;;;3.17;1.90;;;22.00;91.30;;;;;;5063100;28;47066;-77
2022/04/21 13:21:55;;;;;;;4.88;2.25;;;21.70;91.60;;;;;;5056740;28;36623;-78
2022/04/21 13:24:31;;;;;;;3.97;2.17;;;21.40;92.10;;;;;;5037740;28;38617;-78
2022/04/21 13:26:59;;;;;;;6.40;2.53;;;21.50;91.60;;;;;;5035039;28;39770;-77
2022/04/21 13:29:27;;;;;;;3.90;2.40;;;21.20;91.20;;;;;;5051752;28;39594;-78
2022/04/21 13:34:38;;;;;;;3.60;2.35;;;21.20;90.20;;;;;;5056793;28;49599;-79
2022/04/21 13:37:04;;;;;;;6.22;2.72;;;20.70;91.30;;;;;;5056260;28;37602;-79
2022/04/21 13:39:34;;;;;;;6.75;2.65;;;20.70;90.90;;;;;;5076519;28;39122;-78
2022/04/21 13:42:01;;;;;;;5.20;2.88;;;20.90;91.40;;;;;;5061546;28;37532;-77
2022/04/21 13:44:28;;;;;;;4.68;2.10;;;20.70;91.60;;;;;;5074089;28;47307;-77
2022/04/21 13:46:57;;;;;;;4.85;2.42;;;21.50;92.40;;;;;;5062700;28;38543;-78
2022/04/21 13:49:24;;;;;;;7.90;2.47;;;22.30;91.00;;;;;;5060485;28;38285;-79
2022/04/21 13:51:50;;;;;;;3.70;2.25;;;21.70;90.50;;;;;;5057803;28;37130;-78
2022/04/21 13:54:17;;;;;;;4.07;2.30;;;21.40;90.70;;;;;;5073474;28;39825;-77